sensor_id;sensor_type;location;lat;lon;timestamp;pressure;altitude;pressure_sealevel;temperature;humidity
5913;BME280;2982;42.684;23.356;2022-10-22T00:01:39;95748.22;;;6.51;100.00
5913;BME280;2982;42.684;23.356;2022-10-22T00:04:05;95741.63;;;6.44;100.00
5913;BME280;2982;42.684;23.356;2022-10-22T00:06:30;95737.53;;;6.40;100.00
5913;BME280;2982;42.684;23.356;2022-10-22T00:08:56;95739.22;;;6.40;100.00
5913;BME280;2982;42.684;23.356;2022-10-22T00:11:21;95747.59;;;6.42;100.00
5913;BME280;2982;42.684;23.356;2022-10-22T00:13:47;95736.97;;;6.29;100.00
5913;BME280;2982;42.684;23.356;2022-10-22T00:16:13;95746.91;;;6.35;100.00
5913;BME280;2982;42.684;23.356;2022-10-22T00:18:38;95741.13;;;6.32;100.00
5913;BME280;2982;42.684;23.356;2022-10-22T00:21:05;95747.81;;;6.33;100.00
5913;BME280;2982;42.684;23.356;2022-10-22T00:23:31;95737.13;;;6.22;100.00
5913;BME280;2982;42.684;23.356;2022-10-22T00:25:56;95748.88;;;6.24;100.00
5913;BME280;2982;42.684;23.356;2022-10-22T00:28:22;95725.66;;;6.10;100.00
5913;BME280;2982;42.684;23.356;2022-10-22T00:30:54;95735.41;;;6.25;100.00
5913;BME280;2982;42.684;23.356;2022-10-22T00:33:19;95721.00;;;6.29;100.00
5913;BME280;2982;42.684;23.356;2022-10-22T00:35:46;95726.09;;;6.26;100.00
5913;BME280;2982;42.684;23.356;2022-10-22T00:38:11;95723.75;;;6.19;100.00
5913;BME280;2982;42.684;23.356;2022-10-22T00:40:36;95722.09;;;6.17;100.00
5913;BME280;2982;42.684;23.356;2022-10-22T00:43:02;95730.53;;;6.16;100.00
5913;BME280;2982;42.684;23.356;2022-10-22T00:45:27;95719.66;;;6.15;100.00
5913;BME280;2982;42.684;23.356;2022-10-22T00:50:49;95730.69;;;6.10;100.00
5913;BME280;2982;42.684;23.356;2022-10-22T00:53:26;95719.97;;;6.00;100.00
5913;BME280;2982;42.684;23.356;2022-10-22T00:55:53;95725.06;;;5.99;100.00
5913;BME280;2982;42.684;23.356;2022-10-22T00:58:20;95734.91;;;6.09;100.00
5913;BME280;2982;42.684;23.356;2022-10-22T01:00:47;95703.47;;;5.87;100.00
5913;BME280;2982;42.684;23.356;2022-10-22T01:03:13;95705.72;;;5.99;100.00
5913;BME280;2982;42.684;23.356;2022-10-22T01:05:58;95699.81;;;6.00;100.00
5913;BME280;2982;42.684;23.356;2022-10-22T01:11:16;95697.25;;;6.02;100.00
5913;BME280;2982;42.684;23.356;2022-10-22T01:13:55;95698.06;;;6.02;100.00
5913;BME280;2982;42.684;23.356;2022-10-22T01:16:44;95683.00;;;5.99;100.00
5913;BME280;2982;42.684;23.356;2022-10-22T01:22:11;95689.63;;;6.03;100.00
5913;BME280;2982;42.684;23.356;2022-10-22T01:29:59;95683.00;;;6.01;100.00
5913;BME280;2982;42.684;23.356;2022-10-22T01:32:27;95683.09;;;5.96;100.00
5913;BME280;2982;42.684;23.356;2022-10-22T01:34:59;95656.41;;;5.86;100.00
5913;BME280;2982;42.684;23.356;2022-10-22T01:37:27;95670.44;;;5.98;100.00
5913;BME280;2982;42.684;23.356;2022-10-22T01:39:56;95645.47;;;5.87;100.00
5913;BME280;2982;42.684;23.356;2022-10-22T01:42:23;95662.13;;;5.93;100.00
5913;BME280;2982;42.684;23.356;2022-10-22T01:44:49;95661.28;;;5.94;100.00
5913;BME280;2982;42.684;23.356;2022-10-22T01:50:18;95662.91;;;5.96;100.00
5913;BME280;2982;42.684;23.356;2022-10-22T01:53:14;95663.88;;;5.91;100.00
5913;BME280;2982;42.684;23.356;2022-10-22T02:01:22;95600.16;;;5.47;100.00
5913;BME280;2982;42.684;23.356;2022-10-22T02:03:59;95672.59;;;5.74;100.00
5913;BME280;2982;42.684;23.356;2022-10-22T02:06:26;95669.41;;;5.68;100.00
5913;BME280;2982;42.684;23.356;2022-10-22T02:08:54;95659.25;;;5.71;100.00
5913;BME280;2982;42.684;23.356;2022-10-22T02:11:20;95669.97;;;5.81;100.00
5913;BME280;2982;42.684;23.356;2022-10-22T02:13:48;95658.53;;;5.66;100.00
5913;BME280;2982;42.684;23.356;2022-10-22T02:16:23;95672.69;;;5.71;100.00
5913;BME280;2982;42.684;23.356;2022-10-22T02:18:53;95666.75;;;5.74;100.00
5913;BME280;2982;42.684;23.356;2022-10-22T02:21:21;95653.47;;;5.66;100.00
5913;BME280;2982;42.684;23.356;2022-10-22T02:23:46;95666.06;;;5.67;100.00
5913;BME280;2982;42.684;23.356;2022-10-22T02:26:31;95642.88;;;5.52;100.00
5913;BME280;2982;42.684;23.356;2022-10-22T02:29:04;95658.69;;;5.60;100.00
5913;BME280;2982;42.684;23.356;2022-10-22T02:31:35;95652.19;;;5.50;100.00
5913;BME280;2982;42.684;23.356;2022-10-22T02:34:06;95675.50;;;5.59;100.00
5913;BME280;2982;42.684;23.356;2022-10-22T02:36:33;95662.88;;;5.59;100.00
5913;BME280;2982;42.684;23.356;2022-10-22T02:38:59;95675.41;;;5.62;100.00
5913;BME280;2982;42.684;23.356;2022-10-22T02:41:25;95658.00;;;5.52;100.00
5913;BME280;2982;42.684;23.356;2022-10-22T02:43:53;95677.06;;;5.63;100.00
5913;BME280;2982;42.684;23.356;2022-10-22T02:46:19;95679.53;;;5.65;100.00
5913;BME280;2982;42.684;23.356;2022-10-22T02:48:44;95665.63;;;5.49;100.00
5913;BME280;2982;42.684;23.356;2022-10-22T02:51:10;95689.69;;;5.62;100.00
5913;BME280;2982;42.684;23.356;2022-10-22T02:53:35;95683.81;;;5.63;100.00
5913;BME280;2982;42.684;23.356;2022-10-22T02:56:00;95682.13;;;5.63;100.00
5913;BME280;2982;42.684;23.356;2022-10-22T02:58:26;95685.41;;;5.67;100.00
5913;BME280;2982;42.684;23.356;2022-10-22T03:00:51;95672.91;;;5.61;100.00
5913;BME280;2982;42.684;23.356;2022-10-22T03:03:16;95679.63;;;5.62;100.00
5913;BME280;2982;42.684;23.356;2022-10-22T03:05:42;95685.59;;;5.58;100.00
5913;BME280;2982;42.684;23.356;2022-10-22T03:08:07;95650.72;;;5.40;100.00
5913;BME280;2982;42.684;23.356;2022-10-22T03:10:32;95682.22;;;5.59;100.00
5913;BME280;2982;42.684;23.356;2022-10-22T03:12:57;95683.94;;;5.55;100.00
5913;BME280;2982;42.684;23.356;2022-10-22T03:15:23;95680.72;;;5.50;100.00
5913;BME280;2982;42.684;23.356;2022-10-22T03:17:48;95673.09;;;5.53;100.00
5913;BME280;2982;42.684;23.356;2022-10-22T03:20:13;95668.06;;;5.52;100.00
5913;BME280;2982;42.684;23.356;2022-10-22T03:22:40;95672.16;;;5.57;100.00
5913;BME280;2982;42.684;23.356;2022-10-22T03:25:09;95674.03;;;5.49;100.00
5913;BME280;2982;42.684;23.356;2022-10-22T03:27:37;95655.00;;;5.36;100.00
5913;BME280;2982;42.684;23.356;2022-10-22T03:30:04;95674.75;;;5.54;100.00
5913;BME280;2982;42.684;23.356;2022-10-22T03:32:30;95668.91;;;5.52;100.00
5913;BME280;2982;42.684;23.356;2022-10-22T03:34:56;95670.56;;;5.55;100.00
5913;BME280;2982;42.684;23.356;2022-10-22T03:37:22;95671.34;;;5.55;100.00
5913;BME280;2982;42.684;23.356;2022-10-22T03:39:47;95608.31;;;5.20;100.00
5913;BME280;2982;42.684;23.356;2022-10-22T03:42:13;95633.19;;;5.33;100.00
5913;BME280;2982;42.684;23.356;2022-10-22T03:44:39;95658.81;;;5.54;100.00
5913;BME280;2982;42.684;23.356;2022-10-22T03:47:05;95661.34;;;5.52;100.00
5913;BME280;2982;42.684;23.356;2022-10-22T03:49:30;95657.13;;;5.53;100.00
5913;BME280;2982;42.684;23.356;2022-10-22T03:51:55;95655.38;;;5.56;100.00
5913;BME280;2982;42.684;23.356;2022-10-22T03:54:21;95671.28;;;5.60;100.00
5913;BME280;2982;42.684;23.356;2022-10-22T03:56:46;95666.91;;;5.66;100.00
5913;BME280;2982;42.684;23.356;2022-10-22T03:59:11;95666.13;;;5.64;100.00
5913;BME280;2982;42.684;23.356;2022-10-22T04:01:37;95676.88;;;5.72;100.00
5913;BME280;2982;42.684;23.356;2022-10-22T04:04:02;95669.31;;;5.72;100.00
5913;BME280;2982;42.684;23.356;2022-10-22T04:06:28;95666.72;;;5.75;100.00
5913;BME280;2982;42.684;23.356;2022-10-22T04:08:53;95658.22;;;5.80;100.00
5913;BME280;2982;42.684;23.356;2022-10-22T04:11:18;95654.72;;;5.85;100.00
5913;BME280;2982;42.684;23.356;2022-10-22T04:13:44;95653.88;;;5.88;100.00
5913;BME280;2982;42.684;23.356;2022-10-22T04:16:17;95653.91;;;5.85;100.00
5913;BME280;2982;42.684;23.356;2022-10-22T04:18:45;95647.19;;;5.87;100.00
5913;BME280;2982;42.684;23.356;2022-10-22T04:21:12;95644.34;;;5.99;100.00
5913;BME280;2982;42.684;23.356;2022-10-22T04:23:38;95644.22;;;6.05;100.00
5913;BME280;2982;42.684;23.356;2022-10-22T04:26:06;95642.44;;;6.08;100.00
5913;BME280;2982;42.684;23.356;2022-10-22T04:28:32;95648.06;;;6.19;100.00
5913;BME280;2982;42.684;23.356;2022-10-22T04:30:58;95625.47;;;6.15;100.00
5913;BME280;2982;42.684;23.356;2022-10-22T04:33:23;95641.16;;;6.26;100.00
5913;BME280;2982;42.684;23.356;2022-10-22T04:35:49;95646.09;;;6.31;100.00
5913;BME280;2982;42.684;23.356;2022-10-22T04:38:14;95645.97;;;6.35;100.00
5913;BME280;2982;42.684;23.356;2022-10-22T04:40:40;95643.34;;;6.40;100.00
5913;BME280;2982;42.684;23.356;2022-10-22T04:43:05;95654.84;;;6.51;100.00
5913;BME280;2982;42.684;23.356;2022-10-22T04:45:34;95636.88;;;6.30;100.00
5913;BME280;2982;42.684;23.356;2022-10-22T04:48:00;95648.47;;;6.37;100.00
5913;BME280;2982;42.684;23.356;2022-10-22T04:50:25;95651.63;;;6.45;100.00
5913;BME280;2982;42.684;23.356;2022-10-22T04:52:51;95643.19;;;6.46;100.00
5913;BME280;2982;42.684;23.356;2022-10-22T04:55:16;95658.09;;;6.55;100.00
5913;BME280;2982;42.684;23.356;2022-10-22T04:57:42;95666.28;;;6.63;100.00
5913;BME280;2982;42.684;23.356;2022-10-22T05:00:07;95658.84;;;6.58;100.00
5913;BME280;2982;42.684;23.356;2022-10-22T05:02:33;95666.75;;;6.79;100.00
5913;BME280;2982;42.684;23.356;2022-10-22T05:04:58;95669.75;;;6.91;100.00
5913;BME280;2982;42.684;23.356;2022-10-22T05:07:23;95653.91;;;6.86;100.00
5913;BME280;2982;42.684;23.356;2022-10-22T05:09:49;95661.31;;;6.92;100.00
5913;BME280;2982;42.684;23.356;2022-10-22T05:12:14;95670.47;;;6.96;100.00
5913;BME280;2982;42.684;23.356;2022-10-22T05:14:39;95674.03;;;6.89;100.00
5913;BME280;2982;42.684;23.356;2022-10-22T05:17:05;95691.50;;;6.97;100.00
5913;BME280;2982;42.684;23.356;2022-10-22T05:19:30;95701.50;;;7.00;100.00
5913;BME280;2982;42.684;23.356;2022-10-22T05:21:59;95687.19;;;7.00;100.00
5913;BME280;2982;42.684;23.356;2022-10-22T05:24:25;95688.78;;;7.04;100.00
5913;BME280;2982;42.684;23.356;2022-10-22T05:26:52;95697.09;;;7.08;100.00
5913;BME280;2982;42.684;23.356;2022-10-22T05:29:18;95690.28;;;7.10;100.00
5913;BME280;2982;42.684;23.356;2022-10-22T05:31:44;95695.22;;;7.15;100.00
5913;BME280;2982;42.684;23.356;2022-10-22T05:34:09;95686.03;;;7.12;100.00
5913;BME280;2982;42.684;23.356;2022-10-22T05:36:34;95700.34;;;7.13;100.00
5913;BME280;2982;42.684;23.356;2022-10-22T05:39:00;95699.31;;;7.19;100.00
5913;BME280;2982;42.684;23.356;2022-10-22T05:41:26;95703.44;;;7.23;100.00
5913;BME280;2982;42.684;23.356;2022-10-22T05:43:59;95707.00;;;7.16;100.00
5913;BME280;2982;42.684;23.356;2022-10-22T05:46:27;95704.69;;;7.08;100.00
5913;BME280;2982;42.684;23.356;2022-10-22T05:48:59;95704.69;;;7.08;100.00
5913;BME280;2982;42.684;23.356;2022-10-22T05:51:26;95680.41;;;7.02;100.00
5913;BME280;2982;42.684;23.356;2022-10-22T05:53:55;95700.03;;;7.24;100.00
5913;BME280;2982;42.684;23.356;2022-10-22T05:56:21;95694.72;;;7.33;100.00
5913;BME280;2982;42.684;23.356;2022-10-22T05:58:46;95690.47;;;7.35;100.00
5913;BME280;2982;42.684;23.356;2022-10-22T06:01:13;95700.22;;;7.47;100.00
5913;BME280;2982;42.684;23.356;2022-10-22T06:03:39;95684.28;;;7.45;100.00
5913;BME280;2982;42.684;23.356;2022-10-22T06:06:56;95697.41;;;7.56;100.00
5913;BME280;2982;42.684;23.356;2022-10-22T06:11:46;95710.16;;;7.82;100.00
5913;BME280;2982;42.684;23.356;2022-10-22T06:14:12;95702.91;;;7.98;100.00
5913;BME280;2982;42.684;23.356;2022-10-22T06:16:38;95699.09;;;8.13;100.00
5913;BME280;2982;42.684;23.356;2022-10-22T06:19:03;95711.97;;;8.33;100.00
5913;BME280;2982;42.684;23.356;2022-10-22T06:21:30;95711.50;;;8.48;100.00
5913;BME280;2982;42.684;23.356;2022-10-22T06:23:56;95704.22;;;8.64;100.00
5913;BME280;2982;42.684;23.356;2022-10-22T06:26:22;95723.94;;;8.80;100.00
5913;BME280;2982;42.684;23.356;2022-10-22T06:28:47;95726.34;;;8.83;100.00
5913;BME280;2982;42.684;23.356;2022-10-22T06:31:12;95701.34;;;8.74;100.00
5913;BME280;2982;42.684;23.356;2022-10-22T06:33:38;95708.19;;;8.72;100.00
5913;BME280;2982;42.684;23.356;2022-10-22T06:38:32;95738.22;;;9.08;100.00
5913;BME280;2982;42.684;23.356;2022-10-22T06:41:05;95731.69;;;9.25;100.00
5913;BME280;2982;42.684;23.356;2022-10-22T06:43:31;95722.00;;;9.37;100.00
5913;BME280;2982;42.684;23.356;2022-10-22T06:46:05;95732.13;;;9.37;100.00
5913;BME280;2982;42.684;23.356;2022-10-22T06:48:30;95715.16;;;9.39;100.00
5913;BME280;2982;42.684;23.356;2022-10-22T06:51:00;95727.25;;;9.55;100.00
5913;BME280;2982;42.684;23.356;2022-10-22T06:53:26;95736.66;;;9.75;100.00
5913;BME280;2982;42.684;23.356;2022-10-22T06:55:51;95731.88;;;9.89;100.00
5913;BME280;2982;42.684;23.356;2022-10-22T06:58:16;95732.31;;;10.00;100.00
5913;BME280;2982;42.684;23.356;2022-10-22T07:00:42;95702.28;;;10.11;100.00
5913;BME280;2982;42.684;23.356;2022-10-22T07:03:11;95732.94;;;10.29;100.00
5913;BME280;2982;42.684;23.356;2022-10-22T07:05:36;95734.94;;;10.42;100.00
5913;BME280;2982;42.684;23.356;2022-10-22T07:08:01;95735.00;;;10.63;100.00
5913;BME280;2982;42.684;23.356;2022-10-22T07:10:27;95735.75;;;10.65;100.00
5913;BME280;2982;42.684;23.356;2022-10-22T07:12:52;95718.16;;;10.60;100.00
5913;BME280;2982;42.684;23.356;2022-10-22T07:15:17;95724.09;;;10.81;100.00
5913;BME280;2982;42.684;23.356;2022-10-22T07:17:43;95717.53;;;10.75;100.00
5913;BME280;2982;42.684;23.356;2022-10-22T07:20:08;95730.16;;;10.97;100.00
5913;BME280;2982;42.684;23.356;2022-10-22T07:22:34;95716.31;;;11.04;100.00
5913;BME280;2982;42.684;23.356;2022-10-22T07:24:59;95732.13;;;11.11;100.00
5913;BME280;2982;42.684;23.356;2022-10-22T07:27:24;95725.53;;;11.27;100.00
5913;BME280;2982;42.684;23.356;2022-10-22T07:29:50;95731.63;;;11.43;100.00
5913;BME280;2982;42.684;23.356;2022-10-22T07:32:15;95718.34;;;11.55;100.00
5913;BME280;2982;42.684;23.356;2022-10-22T07:34:40;95725.81;;;11.78;100.00
5913;BME280;2982;42.684;23.356;2022-10-22T07:37:06;95725.81;;;11.78;100.00
5913;BME280;2982;42.684;23.356;2022-10-22T07:39:31;95733.09;;;11.86;100.00
5913;BME280;2982;42.684;23.356;2022-10-22T07:41:56;95722.84;;;12.06;100.00
5913;BME280;2982;42.684;23.356;2022-10-22T07:44:21;95717.53;;;12.11;100.00
5913;BME280;2982;42.684;23.356;2022-10-22T07:46:47;95708.88;;;12.15;100.00
5913;BME280;2982;42.684;23.356;2022-10-22T07:49:12;95693.47;;;12.35;100.00
5913;BME280;2982;42.684;23.356;2022-10-22T07:51:37;95696.03;;;12.35;100.00
5913;BME280;2982;42.684;23.356;2022-10-22T07:54:03;95692.88;;;12.47;100.00
5913;BME280;2982;42.684;23.356;2022-10-22T07:56:28;95694.38;;;12.51;100.00
5913;BME280;2982;42.684;23.356;2022-10-22T07:58:53;95687.06;;;12.62;100.00
5913;BME280;2982;42.684;23.356;2022-10-22T08:01:18;95702.78;;;12.70;100.00
5913;BME280;2982;42.684;23.356;2022-10-22T08:03:44;95687.88;;;12.63;100.00
5913;BME280;2982;42.684;23.356;2022-10-22T08:06:12;95706.16;;;12.88;100.00
5913;BME280;2982;42.684;23.356;2022-10-22T08:08:37;95703.47;;;12.91;100.00
5913;BME280;2982;42.684;23.356;2022-10-22T08:11:03;95691.59;;;13.07;100.00
5913;BME280;2982;42.684;23.356;2022-10-22T08:13:28;95683.78;;;13.28;100.00
5913;BME280;2982;42.684;23.356;2022-10-22T08:15:54;95667.81;;;13.24;100.00
5913;BME280;2982;42.684;23.356;2022-10-22T08:18:19;95700.81;;;13.27;100.00
5913;BME280;2982;42.684;23.356;2022-10-22T08:20:44;95695.31;;;13.35;100.00
5913;BME280;2982;42.684;23.356;2022-10-22T08:23:10;95694.13;;;13.42;100.00
5913;BME280;2982;42.684;23.356;2022-10-22T08:25:36;95671.38;;;13.37;100.00
5913;BME280;2982;42.684;23.356;2022-10-22T08:28:01;95679.66;;;13.74;100.00
5913;BME280;2982;42.684;23.356;2022-10-22T08:30:26;95677.78;;;13.93;100.00
5913;BME280;2982;42.684;23.356;2022-10-22T08:32:52;95678.50;;;13.79;100.00
5913;BME280;2982;42.684;23.356;2022-10-22T08:35:17;95674.91;;;13.99;100.00
5913;BME280;2982;42.684;23.356;2022-10-22T08:37:42;95683.13;;;14.04;100.00
5913;BME280;2982;42.684;23.356;2022-10-22T08:40:18;95651.16;;;13.81;100.00
5913;BME280;2982;42.684;23.356;2022-10-22T08:48:17;95679.81;;;14.02;100.00
5913;BME280;2982;42.684;23.356;2022-10-22T08:50:47;95686.28;;;14.09;100.00
5913;BME280;2982;42.684;23.356;2022-10-22T08:55:59;95675.47;;;14.04;100.00
5913;BME280;2982;42.684;23.356;2022-10-22T09:01:06;95676.50;;;14.31;100.00
5913;BME280;2982;42.684;23.356;2022-10-22T09:06:17;95678.72;;;14.53;100.00
5913;BME280;2982;42.684;23.356;2022-10-22T09:08:45;95671.53;;;14.60;100.00
5913;BME280;2982;42.684;23.356;2022-10-22T09:11:27;95670.91;;;14.70;100.00
5913;BME280;2982;42.684;23.356;2022-10-22T09:13:55;95656.84;;;14.63;100.00
5913;BME280;2982;42.684;23.356;2022-10-22T09:21:51;95663.13;;;15.02;100.00
5913;BME280;2982;42.684;23.356;2022-10-22T09:26:56;95655.53;;;15.42;100.00
5913;BME280;2982;42.684;23.356;2022-10-22T09:29:33;95644.56;;;15.26;100.00
5913;BME280;2982;42.684;23.356;2022-10-22T09:31:58;95649.25;;;15.34;100.00
5913;BME280;2982;42.684;23.356;2022-10-22T09:34:24;95655.06;;;15.36;100.00
5913;BME280;2982;42.684;23.356;2022-10-22T09:37:02;95632.22;;;15.33;100.00
5913;BME280;2982;42.684;23.356;2022-10-22T09:39:32;95649.13;;;15.64;100.00
5913;BME280;2982;42.684;23.356;2022-10-22T09:41:57;95635.41;;;15.79;100.00
5913;BME280;2982;42.684;23.356;2022-10-22T09:44:23;95619.44;;;15.88;100.00
5913;BME280;2982;42.684;23.356;2022-10-22T09:46:48;95628.31;;;15.97;100.00
5913;BME280;2982;42.684;23.356;2022-10-22T09:49:16;95625.31;;;16.17;100.00
5913;BME280;2982;42.684;23.356;2022-10-22T09:51:58;95619.38;;;16.29;100.00
5913;BME280;2982;42.684;23.356;2022-10-22T09:54:36;95616.88;;;16.42;100.00
5913;BME280;2982;42.684;23.356;2022-10-22T09:57:13;95624.66;;;16.40;100.00
5913;BME280;2982;42.684;23.356;2022-10-22T09:59:41;95624.97;;;16.09;100.00
5913;BME280;2982;42.684;23.356;2022-10-22T10:02:18;95620.56;;;16.11;100.00
5913;BME280;2982;42.684;23.356;2022-10-22T10:04:54;95612.41;;;16.18;100.00
5913;BME280;2982;42.684;23.356;2022-10-22T10:07:29;95603.59;;;16.22;100.00
5913;BME280;2982;42.684;23.356;2022-10-22T10:09:56;95604.94;;;16.28;100.00
5913;BME280;2982;42.684;23.356;2022-10-22T10:12:35;95605.44;;;16.20;100.00
5913;BME280;2982;42.684;23.356;2022-10-22T10:23:01;95589.75;;;16.25;100.00
5913;BME280;2982;42.684;23.356;2022-10-22T10:25:51;95593.59;;;16.45;100.00
5913;BME280;2982;42.684;23.356;2022-10-22T10:31:26;95578.88;;;16.61;100.00
5913;BME280;2982;42.684;23.356;2022-10-22T10:37:00;95581.66;;;16.83;100.00
5913;BME280;2982;42.684;23.356;2022-10-22T10:42:35;95558.44;;;16.85;100.00
5913;BME280;2982;42.684;23.356;2022-10-22T11:01:41;95524.50;;;17.90;94.71
5913;BME280;2982;42.684;23.356;2022-10-22T11:04:48;95523.09;;;17.86;95.10
5913;BME280;2982;42.684;23.356;2022-10-22T11:07:12;95516.66;;;17.81;94.14
5913;BME280;2982;42.684;23.356;2022-10-22T11:09:43;95489.75;;;17.74;93.82
5913;BME280;2982;42.684;23.356;2022-10-22T11:12:32;95505.75;;;17.53;93.54
5913;BME280;2982;42.684;23.356;2022-10-22T11:15:12;95495.53;;;17.65;95.31
5913;BME280;2982;42.684;23.356;2022-10-22T11:17:45;95498.75;;;17.79;94.30
5913;BME280;2982;42.684;23.356;2022-10-22T11:20:16;95489.38;;;18.02;93.36
5913;BME280;2982;42.684;23.356;2022-10-22T11:22:47;95477.72;;;18.09;91.64
5913;BME280;2982;42.684;23.356;2022-10-22T11:25:15;95488.41;;;18.27;90.97
5913;BME280;2982;42.684;23.356;2022-10-22T11:30:30;95479.63;;;18.29;89.59
5913;BME280;2982;42.684;23.356;2022-10-22T11:33:01;95483.06;;;18.41;89.97
5913;BME280;2982;42.684;23.356;2022-10-22T11:35:33;95464.94;;;18.42;88.57
5913;BME280;2982;42.684;23.356;2022-10-22T11:37:59;95464.22;;;18.40;89.78
5913;BME280;2982;42.684;23.356;2022-10-22T11:40:44;95449.50;;;18.42;87.75
5913;BME280;2982;42.684;23.356;2022-10-22T11:43:28;95463.06;;;18.33;87.47
5913;BME280;2982;42.684;23.356;2022-10-22T11:48:38;95451.13;;;18.32;88.85
5913;BME280;2982;42.684;23.356;2022-10-22T11:51:03;95404.22;;;18.07;87.62
5913;BME280;2982;42.684;23.356;2022-10-22T11:53:55;95444.38;;;18.42;87.29
5913;BME280;2982;42.684;23.356;2022-10-22T11:56:24;95442.84;;;18.51;89.86
5913;BME280;2982;42.684;23.356;2022-10-22T11:58:49;95450.13;;;18.68;88.00
5913;BME280;2982;42.684;23.356;2022-10-22T12:03:50;95432.69;;;18.83;86.29
5913;BME280;2982;42.684;23.356;2022-10-22T12:06:19;95428.72;;;18.79;85.88
5913;BME280;2982;42.684;23.356;2022-10-22T12:11:52;95428.13;;;18.98;82.95
5913;BME280;2982;42.684;23.356;2022-10-22T12:14:22;95423.66;;;19.00;82.29
5913;BME280;2982;42.684;23.356;2022-10-22T12:19:31;95420.88;;;19.34;80.38
5913;BME280;2982;42.684;23.356;2022-10-22T12:22:12;95408.75;;;19.25;79.27
5913;BME280;2982;42.684;23.356;2022-10-22T12:24:41;95414.84;;;19.13;79.75
5913;BME280;2982;42.684;23.356;2022-10-22T12:27:25;95413.44;;;19.20;80.31
5913;BME280;2982;42.684;23.356;2022-10-22T12:29:56;95407.72;;;19.17;78.70
5913;BME280;2982;42.684;23.356;2022-10-22T12:32:23;95419.25;;;19.33;78.93
5913;BME280;2982;42.684;23.356;2022-10-22T12:34:53;95411.41;;;19.35;79.54
5913;BME280;2982;42.684;23.356;2022-10-22T12:37:18;95408.22;;;19.54;77.97
5913;BME280;2982;42.684;23.356;2022-10-22T12:39:45;95409.41;;;19.39;78.60
5913;BME280;2982;42.684;23.356;2022-10-22T12:42:15;95407.63;;;19.39;79.13
5913;BME280;2982;42.684;23.356;2022-10-22T12:44:42;95398.63;;;19.45;80.65
5913;BME280;2982;42.684;23.356;2022-10-22T12:47:14;95399.75;;;19.52;80.04
5913;BME280;2982;42.684;23.356;2022-10-22T12:49:42;95398.16;;;19.71;79.54
5913;BME280;2982;42.684;23.356;2022-10-22T12:52:18;95397.59;;;19.89;78.46
5913;BME280;2982;42.684;23.356;2022-10-22T12:54:49;95378.56;;;20.01;77.76
5913;BME280;2982;42.684;23.356;2022-10-22T12:57:17;95371.38;;;20.04;77.06
5913;BME280;2982;42.684;23.356;2022-10-22T12:59:45;95381.63;;;19.95;75.79
5913;BME280;2982;42.684;23.356;2022-10-22T13:02:19;95385.97;;;19.94;73.99
5913;BME280;2982;42.684;23.356;2022-10-22T13:05:15;95387.06;;;19.92;72.77
5913;BME280;2982;42.684;23.356;2022-10-22T13:07:45;95384.56;;;19.69;73.26
5913;BME280;2982;42.684;23.356;2022-10-22T13:10:22;95382.50;;;19.63;74.65
5913;BME280;2982;42.684;23.356;2022-10-22T13:12:49;95379.88;;;19.54;75.04
5913;BME280;2982;42.684;23.356;2022-10-22T13:20:59;95371.25;;;19.85;74.91
5913;BME280;2982;42.684;23.356;2022-10-22T13:23:26;95371.31;;;19.74;75.29
5913;BME280;2982;42.684;23.356;2022-10-22T13:26:16;95365.09;;;19.76;74.84
5913;BME280;2982;42.684;23.356;2022-10-22T13:28:42;95361.88;;;19.84;74.42
5913;BME280;2982;42.684;23.356;2022-10-22T13:31:19;95359.13;;;19.76;76.66
5913;BME280;2982;42.684;23.356;2022-10-22T13:33:50;95354.91;;;19.75;76.77
5913;BME280;2982;42.684;23.356;2022-10-22T13:36:17;95360.00;;;19.65;75.83
5913;BME280;2982;42.684;23.356;2022-10-22T13:38:43;95362.19;;;19.70;78.25
5913;BME280;2982;42.684;23.356;2022-10-22T13:41:25;95364.09;;;19.68;77.64
5913;BME280;2982;42.684;23.356;2022-10-22T13:43:51;95340.13;;;19.56;77.08
5913;BME280;2982;42.684;23.356;2022-10-22T13:46:17;95354.03;;;19.65;77.51
5913;BME280;2982;42.684;23.356;2022-10-22T13:48:44;95342.84;;;19.55;76.67
5913;BME280;2982;42.684;23.356;2022-10-22T13:51:14;95353.72;;;19.58;76.29
5913;BME280;2982;42.684;23.356;2022-10-22T13:53:41;95308.41;;;19.24;76.36
5913;BME280;2982;42.684;23.356;2022-10-22T13:56:12;95354.47;;;19.49;77.28
5913;BME280;2982;42.684;23.356;2022-10-22T13:58:38;95364.25;;;19.55;78.14
5913;BME280;2982;42.684;23.356;2022-10-22T14:01:03;95359.84;;;19.46;78.51
5913;BME280;2982;42.684;23.356;2022-10-22T14:03:31;95327.88;;;19.17;79.74
5913;BME280;2982;42.684;23.356;2022-10-22T14:05:57;95353.00;;;19.24;79.68
5913;BME280;2982;42.684;23.356;2022-10-22T14:08:23;95358.91;;;19.15;81.65
5913;BME280;2982;42.684;23.356;2022-10-22T14:10:50;95354.00;;;19.12;82.38
5913;BME280;2982;42.684;23.356;2022-10-22T14:13:19;95349.88;;;19.21;83.70
5913;BME280;2982;42.684;23.356;2022-10-22T14:15:46;95338.19;;;19.17;82.66
5913;BME280;2982;42.684;23.356;2022-10-22T14:18:16;95341.22;;;19.22;82.01
5913;BME280;2982;42.684;23.356;2022-10-22T14:20:43;95343.78;;;19.22;82.13
5913;BME280;2982;42.684;23.356;2022-10-22T14:23:14;95341.13;;;19.12;83.04
5913;BME280;2982;42.684;23.356;2022-10-22T14:25:39;95332.69;;;19.10;83.33
5913;BME280;2982;42.684;23.356;2022-10-22T14:28:05;95337.72;;;19.12;84.14
5913;BME280;2982;42.684;23.356;2022-10-22T14:30:30;95332.28;;;18.94;84.13
5913;BME280;2982;42.684;23.356;2022-10-22T14:32:56;95318.50;;;18.84;85.46
5913;BME280;2982;42.684;23.356;2022-10-22T14:35:22;95325.78;;;18.79;84.63
5913;BME280;2982;42.684;23.356;2022-10-22T14:37:48;95333.50;;;18.79;86.13
5913;BME280;2982;42.684;23.356;2022-10-22T14:40:15;95331.66;;;18.70;88.35
5913;BME280;2982;42.684;23.356;2022-10-22T14:42:43;95333.72;;;18.76;86.25
5913;BME280;2982;42.684;23.356;2022-10-22T14:45:15;95330.78;;;18.80;87.08
5913;BME280;2982;42.684;23.356;2022-10-22T14:47:40;95245.38;;;18.32;86.72
5913;BME280;2982;42.684;23.356;2022-10-22T14:50:06;95336.72;;;18.92;86.38
5913;BME280;2982;42.684;23.356;2022-10-22T14:52:32;95323.97;;;18.90;86.97
5913;BME280;2982;42.684;23.356;2022-10-22T14:54:57;95334.63;;;18.97;87.21
5913;BME280;2982;42.684;23.356;2022-10-22T14:57:23;95340.81;;;18.95;88.02